Date,TemperatureHighF,TemperatureAvgF,TemperatureLowF,DewpointHighF,DewpointAvgF,DewpointLowF,HumidityHigh,HumidityAvg,HumidityLow,PressureMaxIn,PressureMinIn,WindSpeedMaxMPH,WindSpeedAvgMPH,GustSpeedMaxMPH,PrecipitationSumIn
2013-5-25,98,90,73,30,22,14,23,12,10,29.92,29.83,14,5,15,0.00
2013-5-26,93,75,61,39,31,17,38,25,10,29.96,29.91,17,4,17,0.00
2013-5-28,95,86,74,35,28,18,27,17,10,29.91,29.62,14,4,17,0.00
2013-5-29,93,81,67,53,42,33,41,29,18,29.77,29.68,9,4,11,0.00
2013-5-30,98,87,70,57,47,35,53,31,16,29.85,29.74,11,4,11,0.00
2013-5-31,98,89,73,62,50,38,61,32,20,29.89,29.77,11,4,12,0.00
2013-6-1,106,93,69,49,40,25,42,22,10,29.85,29.70,8,4,10,0.00
2013-6-2,106,95,72,50,41,22,41,22,10,29.81,29.67,14,5,14,0.00
2013-6-3,104,94,77,46,31,20,32,15,10,29.85,29.74,17,5,17,0.00
2013-6-4,103,92,70,51,39,26,36,21,11,29.88,29.77,12,5,14,0.00
2013-6-5,100,90,70,47,28,17,35,16,10,29.90,29.76,11,4,12,0.00
2013-6-6,104,90,68,39,30,22,32,17,10,29.85,29.71,11,4,11,0.00
2013-6-7,107,90,70,41,31,21,33,17,10,29.82,29.67,11,4,14,0.00
2013-6-8,104,89,72,100,38,19,32,16,10,29.85,29.75,9,3,12,0.00
2013-6-9,105,93,73,40,27,20,32,14,10,29.92,29.79,11,4,14,0.00
2013-6-10,107,94,71,44,33,22,33,17,10,29.92,29.78,14,4,14,0.00
2013-6-11,107,91,72,42,29,22,32,16,10,29.91,29.80,11,4,17,0.00
2013-6-12,107,94,73,43,33,25,32,17,10,29.95,29.80,12,4,13,0.00
2013-6-13,104,93,78,52,45,36,36,24,16,29.94,29.78,14,5,18,0.00
2013-6-14,103,93,76,60,51,41,51,30,19,29.89,29.73,15,4,15,0.00
2013-6-15,105,96,77,62,54,44,48,29,19,29.91,29.78,21,6,24,0.00
2013-6-16,95,86,76,60,57,53,53,41,28,29.94,29.92,7,3,7,0.00
2013-6-17,105,98,83,38,30,20,20,13,10,29.93,29.79,11,4,13,0.00
2013-6-18,101,85,69,40,35,24,33,21,11,29.89,29.82,11,4,12,0.00
2013-6-19,107,88,69,100,53,19,22,16,10,29.81,29.68,14,4,14,0.00
2013-6-20,105,95,78,41,27,17,29,13,10,29.85,29.73,15,5,20,0.00
2013-6-21,97,84,74,45,37,27,30,23,14,29.88,29.80,11,5,16,0.00
2013-6-22,105,94,73,41,29,17,32,15,10,29.88,29.74,17,6,17,0.00
2013-6-23,105,90,72,42,31,19,29,17,10,29.84,29.70,15,6,17,0.00
2013-6-24,104,91,72,41,31,22,25,16,10,29.88,29.76,15,6,23,0.00
2013-6-25,104,91,70,47,30,22,39,17,10,29.96,29.83,8,3,12,0.00
2013-6-26,104,95,82,41,26,16,26,12,10,30.03,29.90,11,5,12,0.00
2013-6-27,105,90,74,47,35,18,32,19,10,30.06,29.90,17,5,17,0.00
2013-6-28,109,93,76,51,38,31,38,19,12,29.95,29.80,10,3,11,0.00
2013-6-29,110,96,79,48,43,36,32,21,12,29.88,29.74,21,5,27,0.00
2013-6-30,110,96,83,64,52,43,50,29,15,29.96,29.70,27,6,30,0.00
2013-7-1,107,89,79,71,62,54,59,44,21,29.91,29.78,14,4,16,0.06
2013-7-2,102,90,73,66,62,55,74,44,27,30.06,29.83,27,6,36,0.11
2013-7-3,106,93,77,62,56,49,54,34,22,29.91,29.70,14,6,14,0.00
2013-7-4,105,96,84,64,58,51,49,32,22,29.86,29.70,11,6,14,0.00
2013-7-5,100,87,79,70,66,61,73,53,34,29.87,29.74,23,6,23,0.01
2013-7-6,105,94,79,69,64,58,68,43,28,29.84,29.68,14,4,17,0.01
2013-7-7,95,87,81,68,64,61,60,49,37,29.83,29.75,16,4,19,0.01
2013-7-8,106,96,85,66,62,58,52,37,25,29.92,29.80,24,5,24,0.02
2013-7-9,100,93,83,71,67,60,66,46,36,30.03,29.87,14,6,14,0.02
2013-7-10,99,86,76,72,70,68,83,63,40,30.00,29.87,12,3,14,0.13
2013-7-11,91,85,74,73,70,68,85,64,50,29.98,29.86,10,4,13,0.07
2013-7-12,94,86,77,73,68,65,83,59,45,29.97,29.84,20,5,21,0.14
2013-7-13,100,91,77,71,66,61,76,48,32,29.96,29.82,14,4,17,0.14
2013-7-14,102,94,83,67,65,62,54,42,32,29.93,29.79,16,4,17,0.14
2013-7-17,102,88,78,69,66,59,74,50,31,30.01,29.88,14,5,14,0.00
2013-7-18,100,89,81,65,62,59,50,40,31,29.96,29.82,16,9,16,0.00
2013-7-19,95,86,81,69,66,63,64,51,38,29.94,29.80,13,5,13,0.00
2013-7-20,94,82,77,72,69,68,74,66,48,29.92,29.78,12,4,12,0.00
2013-7-21,93,83,78,73,70,68,76,65,45,29.94,29.85,11,4,11,0.01
2013-7-22,93,84,75,71,68,64,81,60,44,29.98,29.89,12,4,12,0.00
2013-7-23,98,91,77,68,64,62,67,44,36,29.99,29.84,14,6,14,0.00
2013-7-24,88,83,81,67,65,63,58,55,47,29.94,29.90,5,2,5,0.00
2013-7-25,94,86,78,73,70,68,85,60,47,30.00,29.91,10,4,13,0.04
2013-7-26,99,85,79,71,69,67,74,61,40,30.08,29.98,19,5,25,0.04
2013-7-27,100,88,77,72,69,67,76,56,38,30.03,29.84,12,4,16,0.04
2013-7-28,103,94,78,69,59,48,71,36,26,29.90,29.77,12,5,16,0.04
2013-7-29,103,94,79,56,53,51,44,29,22,30.00,29.90,11,4,14,0.04
2013-7-30,96,83,78,62,57,54,52,44,33,30.09,29.99,8,3,8,0.00
2013-7-31,104,91,81,64,60,58,50,37,24,30.04,29.92,8,3,8,0.00
2013-8-1,93,87,83,68,65,61,56,47,41,29.98,29.90,13,6,13,0.00
2013-8-2,94,85,80,71,67,63,68,56,44,29.95,29.89,9,4,9,0.02
2013-8-3,101,90,76,67,63,57,67,45,29,30.00,29.87,8,4,12,0.02
2013-8-4,101,90,82,70,62,55,64,43,29,30.01,29.88,10,3,10,0.02
2013-8-5,96,87,75,68,61,58,75,46,32,30.02,29.87,18,6,18,0.04
2013-8-6,87,78,72,70,66,62,90,68,49,30.03,29.94,16,4,17,0.18
2013-8-7,96,80,71,68,62,55,79,60,31,30.02,29.89,8,2,8,0.00
2013-8-8,102,87,71,61,51,39,62,36,17,29.95,29.82,8,3,12,0.00
2013-8-9,106,92,71,52,48,40,46,27,19,29.93,29.81,15,5,17,0.00
2013-8-10,103,88,75,56,44,36,40,26,19,30.00,29.86,8,3,17,0.00
2013-8-11,103,87,74,63,55,39,50,36,26,29.97,29.81,17,4,21,0.00
2013-8-12,104,89,75,67,54,35,59,36,16,29.93,29.80,15,4,16,0.00
2013-8-13,104,89,73,53,42,37,39,24,15,29.99,29.84,12,4,17,0.00
2013-8-14,104,90,76,63,51,39,47,31,20,29.96,29.81,21,5,24,0.00
2013-8-15,106,90,78,67,62,55,61,44,25,29.98,29.83,19,4,24,0.07
2013-8-16,107,90,76,71,63,55,65,46,23,29.97,29.83,14,4,14,0.01
2013-8-17,84,84,84,65,65,65,54,54,54,29.96,29.96,4,4,4,0.01
2013-8-18,84,84,84,65,65,65,54,54,54,29.96,29.96,4,4,4,0.01
2013-8-19,103,90,84,65,61,51,54,43,22,29.96,29.81,12,4,12,0.04
2013-8-20,104,89,83,66,62,56,50,43,27,29.96,29.81,21,5,21,0.00
2013-8-21,98,87,79,66,62,58,59,46,31,29.96,29.85,10,3,21,0.00
2013-8-22,103,84,62,68,63,57,88,56,28,29.96,29.79,20,3,33,0.61
2013-8-23,97,81,70,68,65,62,85,63,37,29.92,29.75,18,4,22,0.00
2013-8-24,80,76,76,65,64,60,67,66,55,29.93,29.86,18,7,27,0.00
2013-8-25,76,76,76,64,64,64,67,67,67,29.93,29.93,6,6,9,0.00
2013-8-26,85,77,76,69,65,64,77,68,59,29.93,29.84,14,5,14,0.06
2013-8-27,105,88,72,70,64,56,84,51,28,29.90,29.76,18,5,18,0.06
2013-8-28,97,87,78,69,66,62,64,53,38,29.98,29.82,14,5,17,0.06
2013-8-29,89,81,76,73,70,67,86,71,58,30.08,29.97,9,3,10,0.14
2013-8-30,91,83,76,75,71,64,90,70,51,30.06,29.94,11,3,11,0.22
2013-8-31,96,90,84,71,67,64,62,50,39,29.98,29.86,14,5,14,0.22
2013-9-1,99,93,80,69,65,61,68,44,33,29.94,29.81,11,4,11,0.22
2013-9-2,98,90,84,70,66,60,57,48,33,29.97,29.80,9,2,9,0.22
2013-9-3,102,88,76,68,64,56,65,49,28,29.94,29.85,19,4,19,0.00
2013-9-4,103,90,74,65,59,52,69,40,26,29.97,29.84,17,4,17,0.00
2013-9-5,104,91,74,62,56,53,57,36,23,29.96,29.83,20,5,20,0.00
2013-9-6,98,87,77,69,62,57,62,47,31,29.96,29.82,29,4,29,0.06
2013-9-7,89,84,74,70,67,64,77,58,47,29.98,29.85,14,5,14,0.09
2013-9-8,88,78,73,73,69,65,86,74,48,29.91,29.79,10,3,10,0.15
2013-9-9,86,79,73,72,68,66,85,71,57,29.85,29.74,10,3,10,0.25
2013-9-10,88,79,68,68,64,60,89,64,45,29.93,29.81,12,4,12,0.06
2013-9-11,91,81,68,67,62,57,82,56,37,29.99,29.86,14,4,14,0.00
2013-9-12,79,73,71,62,60,58,71,64,51,29.91,29.88,7,4,7,0.00
2013-9-13,99,89,72,69,60,50,71,43,25,29.81,29.65,14,4,14,0.00
2013-9-14,98,90,80,68,61,53,64,41,27,29.76,29.65,14,5,14,0.00
2013-9-15,101,93,77,65,58,53,62,35,24,29.82,29.72,12,4,12,0.00
2013-9-16,102,91,77,66,61,55,59,41,27,29.86,29.73,17,6,17,0.00
2013-9-17,108,93,82,65,59,49,53,36,24,29.83,29.67,20,6,20,0.00
2013-9-18,98,87,77,62,51,42,56,34,21,29.81,29.67,11,3,11,0.00
2013-9-19,99,88,74,57,51,43,53,32,23,29.82,29.70,11,4,17,0.00
2013-9-20,99,87,71,61,55,45,50,37,23,29.86,29.74,14,5,14,0.00
2013-9-21,97,85,74,65,60,57,60,45,31,29.87,29.69,14,4,14,0.00
2013-9-22,94,84,75,69,57,40,62,44,26,29.78,29.65,22,6,22,0.00
2013-9-23,90,77,60,52,42,32,55,34,19,29.91,29.77,10,3,10,0.00
2013-9-24,72,68,63,45,42,38,49,41,33,29.97,29.91,8,2,8,0.00
2013-9-27,80,74,65,61,46,31,63,40,22,29.93,29.77,9,4,9,0.00
2013-9-28,88,72,55,52,41,31,48,33,25,30.03,29.93,7,3,7,0.00
2013-9-29,90,75,60,51,44,40,54,35,22,30.06,29.93,6,3,6,0.00
2013-9-30,90,75,59,48,40,34,50,32,15,29.98,29.85,8,3,8,0.00
2013-10-1,91,74,58,46,40,34,46,31,19,29.97,29.85,7,2,7,0.00
2013-10-2,90,75,61,54,47,43,54,39,23,29.97,29.81,10,3,10,0.00
2013-10-3,92,83,63,59,46,35,60,32,20,29.88,29.71,16,5,16,0.00
2013-10-4,85,75,59,52,43,27,55,36,23,29.96,29.80,14,4,14,0.00
2013-10-5,82,73,61,30,18,6,27,17,10,30.09,29.99,12,5,14,0.00
2013-10-6,87,73,51,31,24,19,38,21,12,30.09,29.96,9,2,9,0.00
2013-10-7,93,80,59,40,31,24,34,21,14,30.01,29.86,14,4,15,0.00
2013-10-8,89,74,59,42,36,29,44,30,19,29.91,29.79,17,4,17,0.00
2013-10-9,89,78,69,52,42,34,51,32,18,29.79,29.67,26,11,26,0.00
2013-10-10,71,64,58,51,48,45,72,58,48,29.95,29.73,17,6,17,0.00
2013-10-11,76,66,51,48,44,39,72,49,34,29.98,29.88,8,3,8,0.00
2013-10-12,84,69,51,47,42,38,63,41,25,29.95,29.82,10,3,11,0.00
2013-10-13,87,76,56,51,43,37,57,36,21,29.96,29.85,20,6,20,0.00
2013-10-14,81,70,56,48,41,35,65,40,26,30.02,29.89,12,3,12,0.00
2013-10-15,81,70,53,45,37,30,56,35,22,29.94,29.83,12,3,12,0.00
2013-10-16,78,68,50,35,26,15,50,26,13,30.05,29.93,10,4,10,0.00
2013-10-17,79,64,48,33,24,15,43,27,13,30.05,29.88,8,2,8,0.00
2013-10-18,74,66,48,34,29,25,44,29,23,30.00,29.91,10,2,10,0.00
2013-10-19,74,74,74,30,30,30,23,23,23,29.96,29.96,2,2,5,0.00
2013-10-20,83,74,63,30,22,14,23,18,12,29.96,29.83,9,3,9,0.00
2013-10-21,86,70,50,30,21,12,35,20,11,29.99,29.90,10,3,11,0.00
2013-10-22,88,67,49,32,26,20,41,26,12,30.03,29.89,14,4,14,0.00
2013-10-27,88,78,63,42,33,20,34,24,12,29.93,29.76,14,4,14,0.00
2013-10-28,82,72,63,39,36,30,41,31,19,29.89,29.79,21,7,21,0.00
2013-10-29,81,71,62,42,38,32,48,33,21,29.91,29.80,28,8,28,0.00
2013-10-30,68,61,49,42,38,29,65,45,34,30.00,29.90,14,5,14,0.00
2013-10-31,72,60,42,37,30,24,61,38,21,30.09,29.96,9,3,9,0.00
2013-11-1,77,61,45,36,29,25,47,34,21,30.13,29.97,8,3,9,0.00
2013-11-2,85,73,51,50,28,18,56,25,13,30.01,29.82,18,6,21,0.00
2013-11-3,81,71,60,54,48,41,74,48,33,29.92,29.72,14,3,14,0.01
2013-11-4,79,67,55,56,49,42,66,55,34,29.83,29.68,16,5,17,0.08
2013-11-5,70,64,54,50,47,41,77,56,43,30.08,29.86,11,4,11,0.08
2013-11-6,74,61,49,41,28,20,55,31,21,30.21,30.08,10,3,10,0.08
2013-11-7,81,67,46,33,27,18,38,26,20,30.15,30.00,21,8,21,0.08
2013-11-8,80,66,51,44,38,32,49,37,25,30.05,29.92,8,3,8,0.00
2013-11-9,81,65,51,46,40,36,55,41,28,30.08,29.96,6,3,6,0.00
2013-11-10,84,66,52,46,41,37,59,42,25,30.10,29.96,8,3,8,0.00
2013-11-11,85,69,52,48,41,36,56,40,25,30.06,29.95,8,2,8,0.00
2013-11-12,86,74,54,49,45,38,57,39,30,30.14,30.03,21,8,21,0.00
2013-11-13,80,71,61,50,47,44,55,45,36,30.09,29.95,17,7,20,0.00
2013-11-14,81,67,56,54,45,39,62,48,33,30.00,29.83,8,3,8,0.00
2013-11-15,78,69,59,56,50,39,69,52,38,29.83,29.63,21,7,21,0.00
2013-11-16,75,67,58,54,47,39,71,51,33,29.88,29.71,16,4,16,0.00
2013-11-17,75,66,52,52,49,45,78,58,44,30.02,29.88,14,3,14,0.00
2013-11-18,74,62,54,51,48,45,73,63,46,30.05,29.97,8,3,8,0.00
2013-11-19,77,67,51,49,46,42,70,48,32,29.96,29.82,10,3,10,0.00
2013-11-20,74,65,51,46,44,40,68,48,35,29.87,29.79,11,3,11,0.00
2013-11-21,73,64,55,54,48,40,81,57,41,29.91,29.82,12,4,12,0.05
2013-11-22,64,54,49,57,50,43,92,88,75,29.95,29.79,17,5,17,0.93
2013-11-23,55,51,48,52,48,46,94,91,83,30.03,29.93,11,3,11,0.64
2013-11-24,59,51,45,48,44,38,91,78,64,30.10,30.00,10,4,11,0.00
2013-11-25,59,51,41,45,42,35,85,72,61,30.17,30.08,10,3,11,0.00
2013-11-26,67,57,40,44,38,33,88,55,36,30.20,30.07,21,7,21,0.00
2013-11-27,66,59,52,32,30,28,46,36,30,30.06,29.95,21,8,21,0.00
2013-11-28,71,56,43,43,36,30,62,50,35,30.04,29.94,10,2,10,0.00
2013-11-29,73,64,51,48,44,39,69,51,36,30.14,30.01,11,3,11,0.00
2013-11-30,69,59,47,50,47,41,82,66,50,30.13,30.01,8,2,8,0.00
2013-12-1,70,60,51,51,48,45,83,66,51,30.16,30.05,10,2,10,0.00
2013-12-2,69,56,45,49,44,40,87,67,40,30.11,29.88,8,2,8,0.00
2013-12-3,72,63,47,44,40,34,72,47,28,29.89,29.70,12,4,12,0.00
2013-12-4,69,60,47,49,44,40,83,59,39,29.89,29.72,17,7,17,0.02
2013-12-5,52,47,40,45,38,31,88,72,54,30.01,29.85,11,2,11,0.20
2013-12-6,52,44,34,34,29,28,84,59,43,30.13,30.01,8,3,8,0.00
2013-12-7,57,48,34,36,31,27,79,55,36,30.03,29.92,9,3,9,0.00
2013-12-8,57,51,43,43,40,33,74,67,61,30.06,29.96,8,2,8,0.00
2013-12-9,50,43,36,34,24,20,64,49,37,30.22,30.03,10,3,10,0.00
2013-12-10,60,47,34,28,24,20,62,43,31,30.22,30.03,9,4,9,0.00
2013-12-11,71,54,39,42,33,24,61,47,33,30.14,30.05,8,3,8,0.00
2013-12-12,70,58,47,46,39,33,64,51,42,30.12,30.00,14,4,14,0.00
2013-12-13,62,51,40,38,35,32,76,57,41,30.12,30.03,8,2,8,0.00
2013-12-14,45,37,36,34,30,30,79,77,65,30.15,30.11,2,0,2,0.00
2013-12-16,73,62,36,37,34,30,78,38,26,30.17,30.07,5,2,5,0.00
2013-12-17,79,60,44,40,34,30,61,42,23,30.18,30.02,4,2,7,0.00
2013-12-18,56,54,51,32,31,29,46,44,40,30.04,29.98,5,4,5,0.00
2013-12-19,55,54,54,42,32,32,65,45,44,29.99,29.70,8,4,8,0.00
2013-12-20,54,50,46,46,41,32,88,75,44,29.99,29.64,16,4,17,0.21
2013-12-21,54,51,44,43,42,40,85,72,61,29.88,29.79,10,4,10,0.00
2013-12-22,54,54,54,42,42,42,65,65,65,29.84,29.84,7,7,7,0.00
2013-12-23,54,54,54,42,42,42,65,65,65,29.84,29.84,7,7,7,0.00
2013-12-24,54,54,54,42,42,42,65,65,65,29.84,29.84,7,7,7,0.00
2013-12-25,54,54,54,42,42,42,65,65,65,29.84,29.84,7,7,7,0.00
2013-12-26,54,54,54,42,42,42,65,65,65,29.84,29.84,7,7,7,0.00
2013-12-27,54,54,54,42,42,42,65,65,65,29.84,29.84,7,7,7,0.00
2013-12-28,64,56,41,34,31,23,52,41,31,30.08,29.90,13,3,13,0.00
2013-12-29,62,47,40,37,33,30,70,59,42,29.99,29.91,8,2,8,0.00
2013-12-30,65,49,38,37,33,30,73,55,33,30.21,30.09,5,2,5,0.00
2013-12-31,70,50,37,35,31,27,72,50,24,30.18,30.03,7,2,7,0.00
2014-1-1,61,50,38,35,32,26,63,53,38,30.12,30.03,6,2,6,0.00
2014-1-2,74,58,39,36,32,29,70,43,23,30.12,29.98,14,3,14,0.00